sensor_id;sensor_type;location;lat;lon;timestamp;temperature;humidity
37300;DHT22;23184;51.902;12.836;2024-03-02T00:02:24;7.40;99.90
37300;DHT22;23184;51.902;12.836;2024-03-02T00:04:49;7.40;99.90
37300;DHT22;23184;51.902;12.836;2024-03-02T00:07:15;7.40;99.90
37300;DHT22;23184;51.902;12.836;2024-03-02T00:09:40;7.40;99.90
37300;DHT22;23184;51.902;12.836;2024-03-02T00:12:06;7.50;99.90
37300;DHT22;23184;51.902;12.836;2024-03-02T00:14:32;7.40;99.90
37300;DHT22;23184;51.902;12.836;2024-03-02T00:16:59;7.20;99.90
37300;DHT22;23184;51.902;12.836;2024-03-02T00:19:24;7.00;99.90
37300;DHT22;23184;51.902;12.836;2024-03-02T00:21:50;6.80;99.90
37300;DHT22;23184;51.902;12.836;2024-03-02T00:24:21;6.60;99.90
37300;DHT22;23184;51.902;12.836;2024-03-02T00:26:50;6.60;99.90
37300;DHT22;23184;51.902;12.836;2024-03-02T00:29:17;6.60;99.90
37300;DHT22;23184;51.902;12.836;2024-03-02T00:31:44;6.60;99.90
37300;DHT22;23184;51.902;12.836;2024-03-02T00:34:13;6.50;99.90
37300;DHT22;23184;51.902;12.836;2024-03-02T00:36:41;6.50;99.90
37300;DHT22;23184;51.902;12.836;2024-03-02T00:39:06;6.50;99.90
37300;DHT22;23184;51.902;12.836;2024-03-02T00:41:33;6.50;99.90
37300;DHT22;23184;51.902;12.836;2024-03-02T00:44:03;6.50;99.90
37300;DHT22;23184;51.902;12.836;2024-03-02T00:46:37;6.50;99.90
37300;DHT22;23184;51.902;12.836;2024-03-02T00:49:05;6.60;99.90
37300;DHT22;23184;51.902;12.836;2024-03-02T00:51:32;6.70;99.90
37300;DHT22;23184;51.902;12.836;2024-03-02T00:54:03;6.70;99.90
37300;DHT22;23184;51.902;12.836;2024-03-02T00:56:30;6.70;99.90
37300;DHT22;23184;51.902;12.836;2024-03-02T00:58:56;6.80;99.90
37300;DHT22;23184;51.902;12.836;2024-03-02T01:01:21;6.80;99.90
37300;DHT22;23184;51.902;12.836;2024-03-02T01:03:48;6.80;99.90
37300;DHT22;23184;51.902;12.836;2024-03-02T01:06:14;6.90;99.90
37300;DHT22;23184;51.902;12.836;2024-03-02T01:08:40;6.90;99.90
37300;DHT22;23184;51.902;12.836;2024-03-02T01:11:05;6.90;99.90
37300;DHT22;23184;51.902;12.836;2024-03-02T01:13:31;6.90;99.90
37300;DHT22;23184;51.902;12.836;2024-03-02T01:15:57;6.80;99.90
37300;DHT22;23184;51.902;12.836;2024-03-02T01:18:22;6.80;99.90
37300;DHT22;23184;51.902;12.836;2024-03-02T01:20:48;6.80;99.90
37300;DHT22;23184;51.902;12.836;2024-03-02T01:23:20;6.80;99.90
37300;DHT22;23184;51.902;12.836;2024-03-02T01:25:46;6.80;99.90
37300;DHT22;23184;51.902;12.836;2024-03-02T01:28:12;6.80;99.90
37300;DHT22;23184;51.902;12.836;2024-03-02T01:30:38;6.80;99.90
37300;DHT22;23184;51.902;12.836;2024-03-02T01:33:03;6.80;99.90
37300;DHT22;23184;51.902;12.836;2024-03-02T01:35:31;6.80;99.90
37300;DHT22;23184;51.902;12.836;2024-03-02T01:37:56;6.80;99.90
37300;DHT22;23184;51.902;12.836;2024-03-02T01:40:22;6.80;99.90
37300;DHT22;23184;51.902;12.836;2024-03-02T01:42:48;6.80;99.90
37300;DHT22;23184;51.902;12.836;2024-03-02T01:45:14;6.80;99.90
37300;DHT22;23184;51.902;12.836;2024-03-02T01:47:40;6.80;99.90
37300;DHT22;23184;51.902;12.836;2024-03-02T01:50:06;6.80;99.90
37300;DHT22;23184;51.902;12.836;2024-03-02T01:52:32;6.80;99.90
37300;DHT22;23184;51.902;12.836;2024-03-02T01:54:58;6.80;99.90
37300;DHT22;23184;51.902;12.836;2024-03-02T01:57:23;6.90;99.90
37300;DHT22;23184;51.902;12.836;2024-03-02T01:59:49;6.80;99.90
37300;DHT22;23184;51.902;12.836;2024-03-02T02:02:16;6.80;99.90
37300;DHT22;23184;51.902;12.836;2024-03-02T02:04:41;6.80;99.90
37300;DHT22;23184;51.902;12.836;2024-03-02T02:07:07;6.80;99.90
37300;DHT22;23184;51.902;12.836;2024-03-02T02:09:32;6.80;99.90
37300;DHT22;23184;51.902;12.836;2024-03-02T02:11:58;6.80;99.90
37300;DHT22;23184;51.902;12.836;2024-03-02T02:14:23;6.80;99.90
37300;DHT22;23184;51.902;12.836;2024-03-02T02:16:49;6.80;99.90
37300;DHT22;23184;51.902;12.836;2024-03-02T02:19:14;6.90;99.90
37300;DHT22;23184;51.902;12.836;2024-03-02T02:21:43;6.90;99.90
37300;DHT22;23184;51.902;12.836;2024-03-02T02:24:09;7.00;99.90
37300;DHT22;23184;51.902;12.836;2024-03-02T02:26:34;7.00;99.90
37300;DHT22;23184;51.902;12.836;2024-03-02T02:29:00;7.00;99.90
37300;DHT22;23184;51.902;12.836;2024-03-02T02:31:25;7.10;99.90
37300;DHT22;23184;51.902;12.836;2024-03-02T02:33:51;7.10;99.90
37300;DHT22;23184;51.902;12.836;2024-03-02T02:36:16;7.10;99.90
37300;DHT22;23184;51.902;12.836;2024-03-02T02:38:44;7.20;99.90
37300;DHT22;23184;51.902;12.836;2024-03-02T02:41:12;7.20;99.90
37300;DHT22;23184;51.902;12.836;2024-03-02T02:44:14;7.20;99.90
37300;DHT22;23184;51.902;12.836;2024-03-02T02:46:40;7.20;99.90
37300;DHT22;23184;51.902;12.836;2024-03-02T02:49:06;7.30;99.90
37300;DHT22;23184;51.902;12.836;2024-03-02T02:51:32;7.20;99.90
37300;DHT22;23184;51.902;12.836;2024-03-02T02:53:57;7.30;99.90
37300;DHT22;23184;51.902;12.836;2024-03-02T02:56:23;7.30;99.90
37300;DHT22;23184;51.902;12.836;2024-03-02T02:58:48;7.30;99.90
37300;DHT22;23184;51.902;12.836;2024-03-02T03:01:15;7.30;99.90
37300;DHT22;23184;51.902;12.836;2024-03-02T03:03:43;7.30;99.90
37300;DHT22;23184;51.902;12.836;2024-03-02T03:06:09;7.30;99.90
37300;DHT22;23184;51.902;12.836;2024-03-02T03:08:35;7.30;99.90
37300;DHT22;23184;51.902;12.836;2024-03-02T03:11:00;7.30;99.90
37300;DHT22;23184;51.902;12.836;2024-03-02T03:13:26;7.30;99.90
37300;DHT22;23184;51.902;12.836;2024-03-02T03:15:51;7.20;99.90
37300;DHT22;23184;51.902;12.836;2024-03-02T03:18:16;7.30;99.90
37300;DHT22;23184;51.902;12.836;2024-03-02T03:20:42;7.20;99.90
37300;DHT22;23184;51.902;12.836;2024-03-02T03:23:07;7.20;99.90
37300;DHT22;23184;51.902;12.836;2024-03-02T03:25:34;7.20;99.90
37300;DHT22;23184;51.902;12.836;2024-03-02T03:27:59;7.20;99.90
37300;DHT22;23184;51.902;12.836;2024-03-02T03:30:24;7.20;99.90
37300;DHT22;23184;51.902;12.836;2024-03-02T03:32:50;7.20;99.90
37300;DHT22;23184;51.902;12.836;2024-03-02T03:35:16;7.20;99.90
37300;DHT22;23184;51.902;12.836;2024-03-02T03:37:41;7.20;99.90
37300;DHT22;23184;51.902;12.836;2024-03-02T03:40:07;7.20;99.90
37300;DHT22;23184;51.902;12.836;2024-03-02T03:42:35;7.10;99.90
37300;DHT22;23184;51.902;12.836;2024-03-02T03:45:01;7.10;99.90
37300;DHT22;23184;51.902;12.836;2024-03-02T03:47:26;7.00;99.90
37300;DHT22;23184;51.902;12.836;2024-03-02T03:49:52;6.90;99.90
37300;DHT22;23184;51.902;12.836;2024-03-02T03:52:17;6.80;99.90
37300;DHT22;23184;51.902;12.836;2024-03-02T03:54:43;6.80;99.90
37300;DHT22;23184;51.902;12.836;2024-03-02T03:57:09;6.70;99.90
37300;DHT22;23184;51.902;12.836;2024-03-02T03:59:35;6.70;99.90
37300;DHT22;23184;51.902;12.836;2024-03-02T04:02:02;6.80;99.90
37300;DHT22;23184;51.902;12.836;2024-03-02T04:04:28;6.80;99.90
37300;DHT22;23184;51.902;12.836;2024-03-02T04:06:53;6.80;99.90
37300;DHT22;23184;51.902;12.836;2024-03-02T04:09:19;6.90;99.90
37300;DHT22;23184;51.902;12.836;2024-03-02T04:11:45;6.90;99.90
37300;DHT22;23184;51.902;12.836;2024-03-02T04:14:10;6.90;99.90
37300;DHT22;23184;51.902;12.836;2024-03-02T04:16:37;6.80;99.90
37300;DHT22;23184;51.902;12.836;2024-03-02T04:19:03;6.80;99.90
37300;DHT22;23184;51.902;12.836;2024-03-02T04:21:29;6.90;99.90
37300;DHT22;23184;51.902;12.836;2024-03-02T04:23:54;6.90;99.90
37300;DHT22;23184;51.902;12.836;2024-03-02T04:26:23;6.90;99.90
37300;DHT22;23184;51.902;12.836;2024-03-02T04:28:50;6.80;99.90
37300;DHT22;23184;51.902;12.836;2024-03-02T04:31:16;6.80;99.90
37300;DHT22;23184;51.902;12.836;2024-03-02T04:33:42;6.70;99.90
37300;DHT22;23184;51.902;12.836;2024-03-02T04:36:07;6.70;99.90
37300;DHT22;23184;51.902;12.836;2024-03-02T04:38:35;6.60;99.90
37300;DHT22;23184;51.902;12.836;2024-03-02T04:41:00;6.60;99.90
37300;DHT22;23184;51.902;12.836;2024-03-02T04:43:26;6.60;99.90
37300;DHT22;23184;51.902;12.836;2024-03-02T04:45:51;6.70;99.90
37300;DHT22;23184;51.902;12.836;2024-03-02T04:48:17;6.60;99.90
37300;DHT22;23184;51.902;12.836;2024-03-02T04:50:42;6.60;99.90
37300;DHT22;23184;51.902;12.836;2024-03-02T04:53:08;6.60;99.90
37300;DHT22;23184;51.902;12.836;2024-03-02T04:55:33;6.60;99.90
37300;DHT22;23184;51.902;12.836;2024-03-02T04:58:04;6.60;99.90
37300;DHT22;23184;51.902;12.836;2024-03-02T05:00:30;6.60;99.90
37300;DHT22;23184;51.902;12.836;2024-03-02T05:02:56;6.60;99.90
37300;DHT22;23184;51.902;12.836;2024-03-02T05:05:21;6.60;99.90
37300;DHT22;23184;51.902;12.836;2024-03-02T05:07:47;6.60;99.90
37300;DHT22;23184;51.902;12.836;2024-03-02T05:10:12;6.60;99.90
37300;DHT22;23184;51.902;12.836;2024-03-02T05:12:38;6.60;99.90
37300;DHT22;23184;51.902;12.836;2024-03-02T05:15:13;6.70;99.90
37300;DHT22;23184;51.902;12.836;2024-03-02T05:17:40;6.70;99.90
37300;DHT22;23184;51.902;12.836;2024-03-02T05:20:06;6.70;99.90
37300;DHT22;23184;51.902;12.836;2024-03-02T05:22:33;6.70;99.90
37300;DHT22;23184;51.902;12.836;2024-03-02T05:24:59;6.70;99.90
37300;DHT22;23184;51.902;12.836;2024-03-02T05:27:26;6.70;99.90
37300;DHT22;23184;51.902;12.836;2024-03-02T05:29:51;6.70;99.90
37300;DHT22;23184;51.902;12.836;2024-03-02T05:32:17;6.70;99.90
37300;DHT22;23184;51.902;12.836;2024-03-02T05:34:42;6.70;99.90
37300;DHT22;23184;51.902;12.836;2024-03-02T05:37:08;6.70;99.90
37300;DHT22;23184;51.902;12.836;2024-03-02T05:39:33;6.70;99.90
37300;DHT22;23184;51.902;12.836;2024-03-02T05:41:59;6.70;99.90
37300;DHT22;23184;51.902;12.836;2024-03-02T05:44:24;6.70;99.90
37300;DHT22;23184;51.902;12.836;2024-03-02T05:46:50;6.70;99.90
37300;DHT22;23184;51.902;12.836;2024-03-02T05:49:15;6.70;99.90
37300;DHT22;23184;51.902;12.836;2024-03-02T05:51:41;6.70;99.90
37300;DHT22;23184;51.902;12.836;2024-03-02T05:54:07;6.70;99.90
37300;DHT22;23184;51.902;12.836;2024-03-02T05:56:32;6.70;99.90
37300;DHT22;23184;51.902;12.836;2024-03-02T05:58:58;6.70;99.90
37300;DHT22;23184;51.902;12.836;2024-03-02T06:01:44;6.70;99.90
37300;DHT22;23184;51.902;12.836;2024-03-02T06:04:10;6.70;99.90
37300;DHT22;23184;51.902;12.836;2024-03-02T06:06:39;6.70;99.90
37300;DHT22;23184;51.902;12.836;2024-03-02T06:09:05;6.70;99.90
37300;DHT22;23184;51.902;12.836;2024-03-02T06:11:33;6.70;99.90
37300;DHT22;23184;51.902;12.836;2024-03-02T06:13:59;6.70;99.90
37300;DHT22;23184;51.902;12.836;2024-03-02T06:16:24;6.70;99.90
37300;DHT22;23184;51.902;12.836;2024-03-02T06:18:50;6.70;99.90
37300;DHT22;23184;51.902;12.836;2024-03-02T06:21:15;6.80;99.90
37300;DHT22;23184;51.902;12.836;2024-03-02T06:23:41;6.80;99.90
37300;DHT22;23184;51.902;12.836;2024-03-02T06:26:06;6.80;99.90
37300;DHT22;23184;51.902;12.836;2024-03-02T06:28:32;6.80;99.90
37300;DHT22;23184;51.902;12.836;2024-03-02T06:30:57;6.80;99.90
37300;DHT22;23184;51.902;12.836;2024-03-02T06:33:23;6.80;99.90
37300;DHT22;23184;51.902;12.836;2024-03-02T06:35:48;6.70;99.90
37300;DHT22;23184;51.902;12.836;2024-03-02T06:38:14;6.70;99.90
37300;DHT22;23184;51.902;12.836;2024-03-02T06:40:40;6.80;99.90
37300;DHT22;23184;51.902;12.836;2024-03-02T06:43:06;6.80;99.90
37300;DHT22;23184;51.902;12.836;2024-03-02T06:45:31;6.80;99.90
37300;DHT22;23184;51.902;12.836;2024-03-02T06:47:59;6.90;99.90
37300;DHT22;23184;51.902;12.836;2024-03-02T06:50:24;7.00;99.90
37300;DHT22;23184;51.902;12.836;2024-03-02T06:52:50;7.00;99.90
37300;DHT22;23184;51.902;12.836;2024-03-02T06:55:15;7.10;99.90
37300;DHT22;23184;51.902;12.836;2024-03-02T06:57:40;7.20;99.90
37300;DHT22;23184;51.902;12.836;2024-03-02T07:00:06;7.30;99.90
37300;DHT22;23184;51.902;12.836;2024-03-02T07:02:34;7.20;99.90
37300;DHT22;23184;51.902;12.836;2024-03-02T07:05:00;7.30;99.90
37300;DHT22;23184;51.902;12.836;2024-03-02T07:07:25;7.40;99.90
37300;DHT22;23184;51.902;12.836;2024-03-02T07:09:51;7.40;99.90
37300;DHT22;23184;51.902;12.836;2024-03-02T07:12:16;7.50;99.90
37300;DHT22;23184;51.902;12.836;2024-03-02T07:14:42;7.50;99.90
37300;DHT22;23184;51.902;12.836;2024-03-02T07:17:36;7.60;99.90
37300;DHT22;23184;51.902;12.836;2024-03-02T07:20:02;7.60;99.90
37300;DHT22;23184;51.902;12.836;2024-03-02T07:22:29;7.70;99.90
37300;DHT22;23184;51.902;12.836;2024-03-02T07:24:55;7.80;99.90
37300;DHT22;23184;51.902;12.836;2024-03-02T07:27:21;7.80;99.90
37300;DHT22;23184;51.902;12.836;2024-03-02T07:29:46;7.80;99.90
37300;DHT22;23184;51.902;12.836;2024-03-02T07:32:12;7.70;99.90
37300;DHT22;23184;51.902;12.836;2024-03-02T07:34:37;7.70;99.90
37300;DHT22;23184;51.902;12.836;2024-03-02T07:37:03;7.70;99.90
37300;DHT22;23184;51.902;12.836;2024-03-02T07:39:28;7.70;99.90
37300;DHT22;23184;51.902;12.836;2024-03-02T07:41:55;7.60;99.90
37300;DHT22;23184;51.902;12.836;2024-03-02T07:44:20;7.60;99.90
37300;DHT22;23184;51.902;12.836;2024-03-02T07:46:46;7.60;99.90
37300;DHT22;23184;51.902;12.836;2024-03-02T07:49:13;7.60;99.90
37300;DHT22;23184;51.902;12.836;2024-03-02T07:51:39;7.60;99.90
37300;DHT22;23184;51.902;12.836;2024-03-02T07:54:05;7.60;99.90
37300;DHT22;23184;51.902;12.836;2024-03-02T07:56:30;7.60;99.90
37300;DHT22;23184;51.902;12.836;2024-03-02T07:58:56;7.70;99.90
37300;DHT22;23184;51.902;12.836;2024-03-02T08:01:29;7.70;99.90
37300;DHT22;23184;51.902;12.836;2024-03-02T08:03:56;7.80;99.90
37300;DHT22;23184;51.902;12.836;2024-03-02T08:06:26;7.90;99.90
37300;DHT22;23184;51.902;12.836;2024-03-02T08:08:56;8.00;99.90
37300;DHT22;23184;51.902;12.836;2024-03-02T08:11:22;8.00;99.90
37300;DHT22;23184;51.902;12.836;2024-03-02T08:13:48;8.10;99.90
37300;DHT22;23184;51.902;12.836;2024-03-02T08:16:17;8.20;99.90
37300;DHT22;23184;51.902;12.836;2024-03-02T08:18:47;8.10;99.90
37300;DHT22;23184;51.902;12.836;2024-03-02T08:21:13;8.20;99.90
37300;DHT22;23184;51.902;12.836;2024-03-02T08:23:39;8.20;99.90
37300;DHT22;23184;51.902;12.836;2024-03-02T08:26:06;8.20;99.90
37300;DHT22;23184;51.902;12.836;2024-03-02T08:28:32;8.30;99.90
37300;DHT22;23184;51.902;12.836;2024-03-02T08:30:58;8.30;99.90
37300;DHT22;23184;51.902;12.836;2024-03-02T08:33:23;8.40;99.90
37300;DHT22;23184;51.902;12.836;2024-03-02T08:35:49;8.40;99.90
37300;DHT22;23184;51.902;12.836;2024-03-02T08:38:15;8.50;99.90
37300;DHT22;23184;51.902;12.836;2024-03-02T08:40:40;8.50;99.90
37300;DHT22;23184;51.902;12.836;2024-03-02T08:43:06;8.50;99.90
37300;DHT22;23184;51.902;12.836;2024-03-02T08:45:32;8.50;99.90
37300;DHT22;23184;51.902;12.836;2024-03-02T08:47:57;8.50;99.90
37300;DHT22;23184;51.902;12.836;2024-03-02T08:50:23;8.60;99.90
37300;DHT22;23184;51.902;12.836;2024-03-02T08:52:48;8.60;99.90
37300;DHT22;23184;51.902;12.836;2024-03-02T08:55:14;8.60;99.90
37300;DHT22;23184;51.902;12.836;2024-03-02T08:57:40;8.60;99.90
37300;DHT22;23184;51.902;12.836;2024-03-02T09:00:07;8.60;99.90
37300;DHT22;23184;51.902;12.836;2024-03-02T09:02:33;8.70;99.90
37300;DHT22;23184;51.902;12.836;2024-03-02T09:04:59;8.70;99.90
37300;DHT22;23184;51.902;12.836;2024-03-02T09:07:25;8.80;99.90
37300;DHT22;23184;51.902;12.836;2024-03-02T09:09:50;8.80;99.90
37300;DHT22;23184;51.902;12.836;2024-03-02T09:12:15;8.90;99.90
37300;DHT22;23184;51.902;12.836;2024-03-02T09:14:41;9.00;99.90
37300;DHT22;23184;51.902;12.836;2024-03-02T09:17:07;9.00;99.90
37300;DHT22;23184;51.902;12.836;2024-03-02T09:19:33;9.10;99.90
37300;DHT22;23184;51.902;12.836;2024-03-02T09:21:59;9.20;99.90
37300;DHT22;23184;51.902;12.836;2024-03-02T09:24:24;9.30;99.90
37300;DHT22;23184;51.902;12.836;2024-03-02T09:26:50;9.40;99.90
37300;DHT22;23184;51.902;12.836;2024-03-02T09:29:15;9.40;99.90
37300;DHT22;23184;51.902;12.836;2024-03-02T09:31:41;9.60;99.90
37300;DHT22;23184;51.902;12.836;2024-03-02T09:34:07;9.70;99.90
37300;DHT22;23184;51.902;12.836;2024-03-02T09:36:33;9.80;99.90
37300;DHT22;23184;51.902;12.836;2024-03-02T09:38:58;10.00;99.90
37300;DHT22;23184;51.902;12.836;2024-03-02T09:41:24;10.10;99.90
37300;DHT22;23184;51.902;12.836;2024-03-02T09:43:50;10.10;99.90
37300;DHT22;23184;51.902;12.836;2024-03-02T09:46:16;10.20;99.90
37300;DHT22;23184;51.902;12.836;2024-03-02T09:48:44;10.40;99.90
37300;DHT22;23184;51.902;12.836;2024-03-02T09:51:10;10.40;99.90
37300;DHT22;23184;51.902;12.836;2024-03-02T09:53:36;10.40;99.90
37300;DHT22;23184;51.902;12.836;2024-03-02T09:56:02;10.50;99.90
37300;DHT22;23184;51.902;12.836;2024-03-02T09:58:28;10.50;99.90
37300;DHT22;23184;51.902;12.836;2024-03-02T10:00:53;10.80;99.90
37300;DHT22;23184;51.902;12.836;2024-03-02T10:03:19;11.20;99.90
37300;DHT22;23184;51.902;12.836;2024-03-02T10:05:46;11.40;99.90
37300;DHT22;23184;51.902;12.836;2024-03-02T10:08:11;11.70;99.90
37300;DHT22;23184;51.902;12.836;2024-03-02T10:10:38;11.70;99.90
37300;DHT22;23184;51.902;12.836;2024-03-02T10:13:09;12.20;99.90
37300;DHT22;23184;51.902;12.836;2024-03-02T10:15:36;13.00;99.90
37300;DHT22;23184;51.902;12.836;2024-03-02T10:18:05;13.60;99.90
37300;DHT22;23184;51.902;12.836;2024-03-02T10:20:33;14.70;99.90
37300;DHT22;23184;51.902;12.836;2024-03-02T10:23:13;13.80;99.90
37300;DHT22;23184;51.902;12.836;2024-03-02T10:25:40;13.80;99.90
37300;DHT22;23184;51.902;12.836;2024-03-02T10:28:06;13.60;99.90
37300;DHT22;23184;51.902;12.836;2024-03-02T10:30:35;13.30;99.90
37300;DHT22;23184;51.902;12.836;2024-03-02T10:33:02;14.20;99.90
37300;DHT22;23184;51.902;12.836;2024-03-02T10:35:28;13.10;99.90
37300;DHT22;23184;51.902;12.836;2024-03-02T10:37:53;12.80;99.90
37300;DHT22;23184;51.902;12.836;2024-03-02T10:40:23;13.70;99.90
37300;DHT22;23184;51.902;12.836;2024-03-02T10:42:50;14.40;99.90
37300;DHT22;23184;51.902;12.836;2024-03-02T10:45:16;13.80;99.90
37300;DHT22;23184;51.902;12.836;2024-03-02T10:47:47;13.70;99.90
37300;DHT22;23184;51.902;12.836;2024-03-02T10:50:12;14.00;99.90
37300;DHT22;23184;51.902;12.836;2024-03-02T10:52:38;13.50;99.90
37300;DHT22;23184;51.902;12.836;2024-03-02T10:55:05;13.50;99.90
37300;DHT22;23184;51.902;12.836;2024-03-02T10:57:53;14.00;99.90
37300;DHT22;23184;51.902;12.836;2024-03-02T11:00:19;14.50;99.90
37300;DHT22;23184;51.902;12.836;2024-03-02T11:02:57;14.10;99.90
37300;DHT22;23184;51.902;12.836;2024-03-02T11:05:32;14.00;99.90
37300;DHT22;23184;51.902;12.836;2024-03-02T11:08:02;13.00;99.90
37300;DHT22;23184;51.902;12.836;2024-03-02T11:10:50;12.90;99.90
37300;DHT22;23184;51.902;12.836;2024-03-02T11:13:22;13.00;99.90
37300;DHT22;23184;51.902;12.836;2024-03-02T11:15:52;13.20;99.90
37300;DHT22;23184;51.902;12.836;2024-03-02T11:18:20;13.50;99.90
37300;DHT22;23184;51.902;12.836;2024-03-02T11:20:46;13.70;99.90
37300;DHT22;23184;51.902;12.836;2024-03-02T11:23:12;13.80;99.90
37300;DHT22;23184;51.902;12.836;2024-03-02T11:25:37;13.90;99.90
37300;DHT22;23184;51.902;12.836;2024-03-02T11:28:06;13.60;99.90
37300;DHT22;23184;51.902;12.836;2024-03-02T11:32:57;13.20;99.90
37300;DHT22;23184;51.902;12.836;2024-03-02T11:35:25;12.80;99.90
37300;DHT22;23184;51.902;12.836;2024-03-02T11:37:51;12.80;99.90
37300;DHT22;23184;51.902;12.836;2024-03-02T11:40:22;13.00;99.90
37300;DHT22;23184;51.902;12.836;2024-03-02T11:42:48;13.20;99.90
37300;DHT22;23184;51.902;12.836;2024-03-02T11:45:16;13.50;99.90
37300;DHT22;23184;51.902;12.836;2024-03-02T11:47:50;13.70;99.90
37300;DHT22;23184;51.902;12.836;2024-03-02T11:50:17;13.80;99.90
37300;DHT22;23184;51.902;12.836;2024-03-02T11:52:53;13.90;99.90
37300;DHT22;23184;51.902;12.836;2024-03-02T11:55:19;13.90;99.90
37300;DHT22;23184;51.902;12.836;2024-03-02T11:57:46;13.90;99.90
37300;DHT22;23184;51.902;12.836;2024-03-02T12:00:18;14.10;99.90
37300;DHT22;23184;51.902;12.836;2024-03-02T12:02:45;14.40;99.90
37300;DHT22;23184;51.902;12.836;2024-03-02T12:05:15;13.90;99.90
37300;DHT22;23184;51.902;12.836;2024-03-02T12:07:42;14.30;99.90
37300;DHT22;23184;51.902;12.836;2024-03-02T12:10:08;14.50;99.90
37300;DHT22;23184;51.902;12.836;2024-03-02T12:12:34;14.60;99.90
37300;DHT22;23184;51.902;12.836;2024-03-02T12:15:00;14.50;99.90
37300;DHT22;23184;51.902;12.836;2024-03-02T12:17:26;14.70;99.90
37300;DHT22;23184;51.902;12.836;2024-03-02T12:19:51;14.40;99.90
37300;DHT22;23184;51.902;12.836;2024-03-02T12:22:18;14.00;99.90
37300;DHT22;23184;51.902;12.836;2024-03-02T12:24:44;13.90;99.90
37300;DHT22;23184;51.902;12.836;2024-03-02T12:27:15;13.90;99.90
37300;DHT22;23184;51.902;12.836;2024-03-02T12:29:41;14.10;99.90
37300;DHT22;23184;51.902;12.836;2024-03-02T12:32:06;14.20;99.90
37300;DHT22;23184;51.902;12.836;2024-03-02T12:34:32;14.20;99.90
37300;DHT22;23184;51.902;12.836;2024-03-02T12:36:58;14.50;99.90
37300;DHT22;23184;51.902;12.836;2024-03-02T12:39:23;14.50;99.90
37300;DHT22;23184;51.902;12.836;2024-03-02T12:41:50;14.60;99.90
37300;DHT22;23184;51.902;12.836;2024-03-02T12:44:16;14.70;99.90
37300;DHT22;23184;51.902;12.836;2024-03-02T12:46:42;14.50;99.90
37300;DHT22;23184;51.902;12.836;2024-03-02T12:49:09;14.30;99.90
37300;DHT22;23184;51.902;12.836;2024-03-02T12:51:39;14.40;99.90
37300;DHT22;23184;51.902;12.836;2024-03-02T12:54:08;14.20;99.90
37300;DHT22;23184;51.902;12.836;2024-03-02T12:56:35;14.60;99.90
37300;DHT22;23184;51.902;12.836;2024-03-02T12:59:01;14.60;99.90
37300;DHT22;23184;51.902;12.836;2024-03-02T13:01:26;14.80;99.90
37300;DHT22;23184;51.902;12.836;2024-03-02T13:03:53;15.10;99.90
37300;DHT22;23184;51.902;12.836;2024-03-02T13:06:20;15.10;99.90
37300;DHT22;23184;51.902;12.836;2024-03-02T13:08:46;15.00;99.90
37300;DHT22;23184;51.902;12.836;2024-03-02T13:11:12;14.80;99.90
37300;DHT22;23184;51.902;12.836;2024-03-02T13:13:39;14.70;99.90
37300;DHT22;23184;51.902;12.836;2024-03-02T13:16:11;14.60;99.90
37300;DHT22;23184;51.902;12.836;2024-03-02T13:18:41;14.50;99.90
37300;DHT22;23184;51.902;12.836;2024-03-02T13:21:07;14.40;99.90
37300;DHT22;23184;51.902;12.836;2024-03-02T13:23:32;14.30;99.90
37300;DHT22;23184;51.902;12.836;2024-03-02T13:25:59;14.10;99.90
37300;DHT22;23184;51.902;12.836;2024-03-02T13:28:25;14.20;99.90
37300;DHT22;23184;51.902;12.836;2024-03-02T13:30:50;14.10;99.90
37300;DHT22;23184;51.902;12.836;2024-03-02T13:33:16;14.10;99.90
37300;DHT22;23184;51.902;12.836;2024-03-02T13:35:48;14.20;99.90
37300;DHT22;23184;51.902;12.836;2024-03-02T13:38:13;14.30;99.90
37300;DHT22;23184;51.902;12.836;2024-03-02T13:40:39;14.60;99.90
37300;DHT22;23184;51.902;12.836;2024-03-02T13:43:05;14.70;99.90
37300;DHT22;23184;51.902;12.836;2024-03-02T13:45:31;14.90;99.90
37300;DHT22;23184;51.902;12.836;2024-03-02T13:47:56;15.20;99.90
37300;DHT22;23184;51.902;12.836;2024-03-02T13:50:22;15.40;99.90
37300;DHT22;23184;51.902;12.836;2024-03-02T13:52:47;15.50;99.90
37300;DHT22;23184;51.902;12.836;2024-03-02T13:55:13;15.40;99.90
37300;DHT22;23184;51.902;12.836;2024-03-02T13:57:39;15.30;99.90
37300;DHT22;23184;51.902;12.836;2024-03-02T14:00:05;15.30;99.90
37300;DHT22;23184;51.902;12.836;2024-03-02T14:02:35;15.10;99.90
37300;DHT22;23184;51.902;12.836;2024-03-02T14:05:01;14.80;99.90
37300;DHT22;23184;51.902;12.836;2024-03-02T14:07:26;14.80;99.90
37300;DHT22;23184;51.902;12.836;2024-03-02T14:09:52;15.00;99.90
37300;DHT22;23184;51.902;12.836;2024-03-02T14:12:17;15.50;99.90
37300;DHT22;23184;51.902;12.836;2024-03-02T14:14:43;16.20;99.90
37300;DHT22;23184;51.902;12.836;2024-03-02T14:17:08;16.80;99.90
37300;DHT22;23184;51.902;12.836;2024-03-02T14:19:39;17.00;99.90
37300;DHT22;23184;51.902;12.836;2024-03-02T14:22:05;17.30;99.90
37300;DHT22;23184;51.902;12.836;2024-03-02T14:24:30;17.20;99.90
37300;DHT22;23184;51.902;12.836;2024-03-02T14:26:56;17.20;99.90
37300;DHT22;23184;51.902;12.836;2024-03-02T14:29:27;16.80;99.90
37300;DHT22;23184;51.902;12.836;2024-03-02T14:31:52;16.70;99.90
37300;DHT22;23184;51.902;12.836;2024-03-02T14:34:18;16.40;99.90
37300;DHT22;23184;51.902;12.836;2024-03-02T14:36:43;16.50;99.90
37300;DHT22;23184;51.902;12.836;2024-03-02T14:39:10;16.60;99.90
37300;DHT22;23184;51.902;12.836;2024-03-02T14:41:36;17.00;99.90
37300;DHT22;23184;51.902;12.836;2024-03-02T14:44:02;17.30;99.90
37300;DHT22;23184;51.902;12.836;2024-03-02T14:46:28;17.40;99.90
37300;DHT22;23184;51.902;12.836;2024-03-02T14:48:53;17.50;99.90
37300;DHT22;23184;51.902;12.836;2024-03-02T14:51:19;17.20;99.90
37300;DHT22;23184;51.902;12.836;2024-03-02T14:53:44;17.20;99.90
37300;DHT22;23184;51.902;12.836;2024-03-02T14:56:10;17.20;99.90
37300;DHT22;23184;51.902;12.836;2024-03-02T14:58:35;17.50;99.90
37300;DHT22;23184;51.902;12.836;2024-03-02T15:01:03;17.00;99.90
37300;DHT22;23184;51.902;12.836;2024-03-02T15:03:28;16.60;99.90
37300;DHT22;23184;51.902;12.836;2024-03-02T15:05:54;16.30;99.90
37300;DHT22;23184;51.902;12.836;2024-03-02T15:08:19;16.00;99.90
37300;DHT22;23184;51.902;12.836;2024-03-02T15:10:45;15.60;99.90
37300;DHT22;23184;51.902;12.836;2024-03-02T15:13:11;15.30;99.90
37300;DHT22;23184;51.902;12.836;2024-03-02T15:15:36;15.00;99.90
37300;DHT22;23184;51.902;12.836;2024-03-02T15:18:02;14.90;99.90
37300;DHT22;23184;51.902;12.836;2024-03-02T15:20:29;14.90;99.90
37300;DHT22;23184;51.902;12.836;2024-03-02T15:22:54;14.90;99.90
37300;DHT22;23184;51.902;12.836;2024-03-02T15:25:20;14.80;99.90